Time;durP1;ratioP1;P1;durP2;ratioP2;P2;SDS_P1;SDS_P2;PMS_P1;PMS_P2;Temp;Humidity;BMP_temperature;BMP_pressure;BME280_temperature;BME280_humidity;BME280_pressure;Samples;Min_cycle;Max_cycle;Signal;HPM_P1;HPM_P2
2022/05/19 00:01:01;;;;;;;1.92;1.00;;;;;;;;;;5051387;28;20040;-38
2022/05/19 00:03:27;;;;;;;2.95;1.20;;;;;;;;;;5051617;28;20171;-38
2022/05/19 00:05:53;;;;;;;2.50;0.93;;;;;;;;;;5051435;28;20044;-38
2022/05/19 00:08:18;;;;;;;0.90;0.85;;;;;;;;;;5051579;28;20033;-38
2022/05/19 00:10:43;;;;;;;2.55;0.60;;;;;;;;;;5051752;28;20027;-38
2022/05/19 00:13:09;;;;;;;1.08;0.70;;;;;;;;;;5051254;28;20141;-38
2022/05/19 00:15:34;;;;;;;1.80;0.60;;;;;;;;;;5051292;28;20192;-38
2022/05/19 00:18:00;;;;;;;2.05;0.75;;;;;;;;;;5051521;28;20024;-38
2022/05/19 00:20:25;;;;;;;2.47;0.80;;;;;;;;;;5051278;28;20017;-38
2022/05/19 00:22:51;;;;;;;3.03;0.93;;;;;;;;;;5051412;28;20040;-38
2022/05/19 00:25:16;;;;;;;0.60;0.60;;;;;;;;;;5051621;28;20029;-38
2022/05/19 00:27:41;;;;;;;4.20;0.90;;;;;;;;;;5051495;28;20032;-37
2022/05/19 00:30:07;;;;;;;1.40;0.52;;;;;;;;;;5051377;28;20075;-38
2022/05/19 00:32:32;;;;;;;3.38;0.90;;;;;;;;;;5051418;28;20060;-38
2022/05/19 00:34:58;;;;;;;2.13;0.70;;;;;;;;;;5049905;28;20045;-38
2022/05/19 00:37:23;;;;;;;1.33;0.75;;;;;;;;;;5051364;28;20108;-38
2022/05/19 00:39:49;;;;;;;0.77;0.60;;;;;;;;;;5051125;28;20036;-37
2022/05/19 00:44:59;;;;;;;1.30;0.80;;;;;;;;;;5051321;28;20052;-38
2022/05/19 00:47:24;;;;;;;8.65;1.05;;;;;;;;;;5051423;28;20021;-38
2022/05/19 00:49:51;;;;;;;1.08;0.75;;;;;;;;;;5051325;28;20620;-38
2022/05/19 00:52:26;;;;;;;2.15;0.95;;;;;;;;;;5049833;28;20071;-38
2022/05/19 00:55:07;;;;;;;1.30;0.70;;;;;;;;;;5051149;28;20040;-37
2022/05/19 00:57:35;;;;;;;2.30;0.77;;;;;;;;;;5051235;28;20384;-38
2022/05/19 01:00:04;;;;;;;1.98;0.98;;;;;;;;;;5051002;28;20025;-37
2022/05/19 01:02:31;;;;;;;1.80;0.93;;;;;;;;;;5050881;28;20029;-38
2022/05/19 01:05:00;;;;;;;1.15;0.75;;;;;;;;;;5051253;28;20043;-38
2022/05/19 01:07:38;;;;;;;1.77;1.05;;;;;;;;;;5051280;28;20025;-38
2022/05/19 01:10:05;;;;;;;3.95;1.05;;;;;;;;;;5051157;28;20404;-38
2022/05/19 01:12:30;;;;;;;1.10;0.88;;;;;;;;;;5051707;28;20126;-39
2022/05/19 01:14:56;;;;;;;1.25;0.80;;;;;;;;;;5054753;28;20133;-38
2022/05/19 01:17:22;;;;;;;1.50;0.85;;;;;;;;;;5054586;28;20024;-38
2022/05/19 01:19:51;;;;;;;2.10;1.65;;;;;;;;;;5054854;28;20033;-38
2022/05/19 01:22:23;;;;;;;8.15;0.95;;;;;;;;;;5054841;28;20025;-38
2022/05/19 01:25:09;;;;;;;2.33;1.23;;;;;;;;;;5054452;28;20033;-38
2022/05/19 01:27:34;;;;;;;0.80;0.80;;;;;;;;;;5054208;28;20510;-38
2022/05/19 01:30:01;;;;;;;4.90;0.77;;;;;;;;;;5054467;28;20025;-38
2022/05/19 01:32:27;;;;;;;2.42;1.08;;;;;;;;;;5054325;28;20025;-38
2022/05/19 01:34:53;;;;;;;1.33;0.50;;;;;;;;;;5054602;28;20154;-37
2022/05/19 01:37:19;;;;;;;1.80;1.00;;;;;;;;;;5054384;28;20564;-37
2022/05/19 01:40:03;;;;;;;1.83;1.00;;;;;;;;;;5053064;28;20050;-37
2022/05/19 01:42:48;;;;;;;2.50;1.25;;;;;;;;;;5054143;28;20029;-37
2022/05/19 01:45:32;;;;;;;2.08;1.00;;;;;;;;;;5054131;28;20538;-37
2022/05/19 01:48:00;;;;;;;0.60;0.60;;;;;;;;;;5054731;28;20074;-37
2022/05/19 01:50:36;;;;;;;3.30;0.60;;;;;;;;;;5054417;28;20021;-38
2022/05/19 01:53:08;;;;;;;2.13;1.13;;;;;;;;;;5054198;28;20029;-38
2022/05/19 01:55:33;;;;;;;1.33;0.90;;;;;;;;;;5054153;28;20048;-37
2022/05/19 01:58:02;;;;;;;3.55;0.70;;;;;;;;;;5054167;28;20021;-38
2022/05/19 02:00:28;;;;;;;2.58;1.27;;;;;;;;;;5053782;28;20506;-38
2022/05/19 02:02:56;;;;;;;1.27;0.73;;;;;;;;;;5053848;28;20062;-37
2022/05/19 02:05:32;;;;;;;1.33;0.77;;;;;;;;;;5054176;28;20029;-38
2022/05/19 02:07:58;;;;;;;1.40;0.80;;;;;;;;;;5053742;28;20043;-38
2022/05/19 02:10:26;;;;;;;1.13;0.68;;;;;;;;;;5053705;28;20020;-38
2022/05/19 02:12:54;;;;;;;1.17;0.70;;;;;;;;;;5053617;28;20110;-38
2022/05/19 02:15:21;;;;;;;1.08;0.70;;;;;;;;;;5053530;28;20399;-38
2022/05/19 02:17:48;;;;;;;2.28;0.85;;;;;;;;;;5053632;28;20122;-38
2022/05/19 02:20:15;;;;;;;1.90;1.05;;;;;;;;;;5053460;28;20486;-38
2022/05/19 02:22:42;;;;;;;1.05;0.70;;;;;;;;;;5053500;28;20382;-38
2022/05/19 02:25:26;;;;;;;2.13;1.00;;;;;;;;;;5053527;28;20483;-38
2022/05/19 02:27:58;;;;;;;2.33;0.95;;;;;;;;;;5053544;28;20071;-38
2022/05/19 02:30:28;;;;;;;1.45;0.82;;;;;;;;;;5052410;28;20029;-37
2022/05/19 02:32:54;;;;;;;2.95;1.48;;;;;;;;;;5053283;28;20036;-37
2022/05/19 02:35:19;;;;;;;2.50;0.88;;;;;;;;;;5053083;28;20032;-37
2022/05/19 02:37:46;;;;;;;0.93;0.80;;;;;;;;;;5053220;28;20050;-38
2022/05/19 02:40:13;;;;;;;2.00;0.93;;;;;;;;;;5053469;28;20025;-38
2022/05/19 02:42:39;;;;;;;1.70;1.02;;;;;;;;;;5052989;28;20029;-37
2022/05/19 02:45:04;;;;;;;2.80;1.73;;;;;;;;;;5051855;28;20027;-38
2022/05/19 02:47:30;;;;;;;1.42;0.88;;;;;;;;;;5052978;28;20016;-38
2022/05/19 02:49:55;;;;;;;1.55;0.98;;;;;;;;;;5053135;28;20075;-37
2022/05/19 02:52:21;;;;;;;3.60;1.70;;;;;;;;;;5052951;28;20036;-38
2022/05/19 02:54:46;;;;;;;15.88;1.60;;;;;;;;;;5052977;28;20506;-38
2022/05/19 02:57:12;;;;;;;1.65;1.02;;;;;;;;;;5052848;28;20032;-37
2022/05/19 02:59:37;;;;;;;2.45;0.98;;;;;;;;;;5052613;28;20104;-38
2022/05/19 03:02:03;;;;;;;5.65;1.10;;;;;;;;;;5052699;28;20029;-37
2022/05/19 03:04:28;;;;;;;1.10;0.90;;;;;;;;;;5052599;28;20109;-38
2022/05/19 03:06:54;;;;;;;2.10;1.10;;;;;;;;;;5052852;28;20060;-37
2022/05/19 03:09:19;;;;;;;1.33;1.13;;;;;;;;;;5052546;28;20021;-38
2022/05/19 03:11:44;;;;;;;1.52;1.02;;;;;;;;;;5052840;28;20041;-37
2022/05/19 03:14:10;;;;;;;3.08;1.38;;;;;;;;;;5052765;28;20041;-38
2022/05/19 03:16:37;;;;;;;2.13;1.15;;;;;;;;;;5052766;28;20031;-38
2022/05/19 03:19:03;;;;;;;1.85;1.30;;;;;;;;;;5052324;28;20025;-38
2022/05/19 03:21:28;;;;;;;1.60;1.10;;;;;;;;;;5052330;28;20047;-37
2022/05/19 03:23:54;;;;;;;3.50;1.67;;;;;;;;;;5052606;28;20430;-37
2022/05/19 03:26:19;;;;;;;1.67;0.98;;;;;;;;;;5052181;28;20087;-37
2022/05/19 03:28:44;;;;;;;6.40;1.05;;;;;;;;;;5051220;28;20112;-41
2022/05/19 03:31:10;;;;;;;9.57;1.20;;;;;;;;;;5052869;28;20079;-37
2022/05/19 03:33:35;;;;;;;3.15;1.27;;;;;;;;;;5052427;28;20103;-37
2022/05/19 03:36:02;;;;;;;1.75;0.98;;;;;;;;;;5050729;28;20028;-37
2022/05/19 03:38:27;;;;;;;2.70;1.15;;;;;;;;;;5051156;28;20025;-37
2022/05/19 03:40:53;;;;;;;1.05;0.77;;;;;;;;;;5052501;28;20063;-38
2022/05/19 03:43:18;;;;;;;3.90;1.08;;;;;;;;;;5052579;28;20036;-38
2022/05/19 03:45:45;;;;;;;4.32;1.20;;;;;;;;;;5052242;28;20025;-37
2022/05/19 03:48:12;;;;;;;3.33;1.45;;;;;;;;;;5052333;28;20052;-37
2022/05/19 03:50:38;;;;;;;1.55;1.38;;;;;;;;;;5051984;28;20068;-38
2022/05/19 03:53:03;;;;;;;4.82;0.93;;;;;;;;;;5052025;28;20063;-38
2022/05/19 03:55:29;;;;;;;2.22;1.27;;;;;;;;;;5052117;28;20045;-38
2022/05/19 03:57:54;;;;;;;2.83;1.42;;;;;;;;;;5052424;28;20091;-38
2022/05/19 04:00:20;;;;;;;1.63;0.88;;;;;;;;;;5052412;28;20045;-38
2022/05/19 04:02:47;;;;;;;3.03;1.00;;;;;;;;;;5051957;28;20029;-38
2022/05/19 04:05:13;;;;;;;1.23;0.75;;;;;;;;;;5052101;28;20044;-38
2022/05/19 04:07:39;;;;;;;3.10;0.90;;;;;;;;;;5052213;28;20112;-38
2022/05/19 04:10:05;;;;;;;2.65;1.42;;;;;;;;;;5051952;28;20033;-37
2022/05/19 04:12:31;;;;;;;2.00;1.23;;;;;;;;;;5051687;28;20104;-37
2022/05/19 04:14:56;;;;;;;2.30;1.17;;;;;;;;;;5051920;28;20501;-37
2022/05/19 04:17:22;;;;;;;1.98;1.23;;;;;;;;;;5051647;28;20368;-38
2022/05/19 04:19:47;;;;;;;2.00;1.20;;;;;;;;;;5051579;28;20037;-38
2022/05/19 04:22:12;;;;;;;6.45;1.70;;;;;;;;;;5051585;28;20025;-38
2022/05/19 04:24:38;;;;;;;6.00;2.25;;;;;;;;;;5051262;28;20033;-38
2022/05/19 04:27:03;;;;;;;4.03;1.50;;;;;;;;;;5051396;28;20076;-38
2022/05/19 04:29:29;;;;;;;7.35;1.60;;;;;;;;;;5051047;28;20086;-38
2022/05/19 04:31:55;;;;;;;2.72;1.02;;;;;;;;;;5051370;28;20028;-37
2022/05/19 04:34:20;;;;;;;2.25;1.23;;;;;;;;;;5051447;28;20487;-38
2022/05/19 04:36:46;;;;;;;1.25;0.98;;;;;;;;;;5051158;28;20422;-37
2022/05/19 04:39:13;;;;;;;6.05;1.20;;;;;;;;;;5051217;28;20021;-37
2022/05/19 04:41:38;;;;;;;4.05;1.15;;;;;;;;;;5051391;28;20135;-38
2022/05/19 04:44:03;;;;;;;2.00;1.30;;;;;;;;;;5051455;28;20124;-37
2022/05/19 04:46:29;;;;;;;8.82;1.95;;;;;;;;;;5052144;28;20114;-38
2022/05/19 04:48:54;;;;;;;2.05;0.90;;;;;;;;;;5055451;28;20033;-38
2022/05/19 04:51:20;;;;;;;1.40;1.05;;;;;;;;;;5055185;28;20017;-37
2022/05/19 04:53:45;;;;;;;1.55;1.05;;;;;;;;;;5055022;28;20025;-37
2022/05/19 04:56:10;;;;;;;8.40;1.58;;;;;;;;;;5055150;28;20139;-38
2022/05/19 04:58:37;;;;;;;1.77;1.10;;;;;;;;;;5055180;28;20047;-37
2022/05/19 05:01:04;;;;;;;2.17;1.42;;;;;;;;;;5055260;28;20757;-38
2022/05/19 05:03:29;;;;;;;4.00;1.70;;;;;;;;;;5054962;28;20028;-38
2022/05/19 05:05:55;;;;;;;7.53;1.55;;;;;;;;;;5054931;28;20017;-38
2022/05/19 05:08:20;;;;;;;4.95;1.38;;;;;;;;;;5054902;28;20044;-38
2022/05/19 05:10:46;;;;;;;3.67;1.42;;;;;;;;;;5054574;28;20029;-38
2022/05/19 05:13:12;;;;;;;3.08;1.20;;;;;;;;;;5054618;28;20411;-38
2022/05/19 05:15:38;;;;;;;2.88;1.40;;;;;;;;;;5054887;28;20094;-38
2022/05/19 05:18:05;;;;;;;3.40;1.10;;;;;;;;;;5054447;28;20422;-38
2022/05/19 05:20:32;;;;;;;1.52;1.25;;;;;;;;;;5054849;28;20104;-38
2022/05/19 05:22:57;;;;;;;3.95;1.60;;;;;;;;;;5054705;28;20451;-38
2022/05/19 05:25:26;;;;;;;5.13;1.20;;;;;;;;;;5054783;28;20115;-38
2022/05/19 05:27:52;;;;;;;3.28;1.20;;;;;;;;;;5053197;28;20028;-38
2022/05/19 05:30:17;;;;;;;5.03;1.23;;;;;;;;;;5054424;28;20190;-38
2022/05/19 05:32:43;;;;;;;2.42;1.42;;;;;;;;;;5054376;28;20064;-38
2022/05/19 05:35:09;;;;;;;2.72;1.60;;;;;;;;;;5054580;28;20413;-38
2022/05/19 05:37:36;;;;;;;1.65;1.42;;;;;;;;;;5054544;28;20064;-38
2022/05/19 05:40:03;;;;;;;1.90;1.35;;;;;;;;;;5054216;28;20040;-38
2022/05/19 05:42:28;;;;;;;2.65;1.15;;;;;;;;;;5054464;28;20463;-38
2022/05/19 05:44:55;;;;;;;2.05;0.90;;;;;;;;;;5054170;28;20055;-38
2022/05/19 05:47:21;;;;;;;13.30;2.45;;;;;;;;;;5054063;28;20068;-38
2022/05/19 05:49:46;;;;;;;19.30;2.13;;;;;;;;;;5052686;28;20112;-38
2022/05/19 05:52:12;;;;;;;4.35;1.50;;;;;;;;;;5052738;28;20032;-38
2022/05/19 05:54:41;;;;;;;2.80;1.02;;;;;;;;;;5054101;28;20033;-38
2022/05/19 05:57:06;;;;;;;3.53;1.23;;;;;;;;;;5054010;28;20364;-38
2022/05/19 05:59:32;;;;;;;1.95;1.00;;;;;;;;;;5051651;28;20082;-39
2022/05/19 06:01:58;;;;;;;2.13;1.33;;;;;;;;;;5054133;28;20159;-37
2022/05/19 06:04:23;;;;;;;2.05;1.15;;;;;;;;;;5053791;28;20609;-38
2022/05/19 06:06:49;;;;;;;5.30;0.73;;;;;;;;;;5054211;28;20047;-37
2022/05/19 06:09:15;;;;;;;2.45;0.80;;;;;;;;;;5053977;28;20025;-37
2022/05/19 06:11:42;;;;;;;2.08;1.38;;;;;;;;;;5053919;28;20062;-38
2022/05/19 06:14:08;;;;;;;4.13;1.50;;;;;;;;;;5053350;28;20137;-39
2022/05/19 06:16:33;;;;;;;1.27;1.17;;;;;;;;;;5053452;28;20074;-38
2022/05/19 06:18:59;;;;;;;1.58;1.10;;;;;;;;;;5053642;28;20100;-38
2022/05/19 06:21:25;;;;;;;2.72;1.48;;;;;;;;;;5053474;28;20039;-38
2022/05/19 06:23:50;;;;;;;1.63;1.00;;;;;;;;;;5053628;28;20017;-37
2022/05/19 06:26:16;;;;;;;3.67;1.50;;;;;;;;;;5053422;28;20468;-38
2022/05/19 06:28:42;;;;;;;4.07;0.93;;;;;;;;;;5051992;28;20367;-38
2022/05/19 06:31:08;;;;;;;2.20;1.25;;;;;;;;;;5052215;28;20387;-37
2022/05/19 06:33:36;;;;;;;6.30;1.15;;;;;;;;;;5053160;28;20021;-38
2022/05/19 06:36:05;;;;;;;2.35;1.35;;;;;;;;;;5053279;28;20060;-38
2022/05/19 06:38:31;;;;;;;5.50;1.05;;;;;;;;;;5053135;28;20482;-38
2022/05/19 06:42:00;;;;;;;3.13;1.40;;;;;;;;;;5053127;28;20033;-37
2022/05/19 06:43:43;;;;;;;4.22;1.30;;;;;;;;;;5052913;28;20083;-38
2022/05/19 06:46:09;;;;;;;2.70;1.27;;;;;;;;;;5053104;28;20022;-38
2022/05/19 06:48:35;;;;;;;1.58;1.10;;;;;;;;;;5052916;28;20060;-38
2022/05/19 06:51:01;;;;;;;1.80;1.10;;;;;;;;;;5052871;28;20024;-38
2022/05/19 06:53:28;;;;;;;4.43;1.20;;;;;;;;;;5052931;28;20031;-38
2022/05/19 06:55:54;;;;;;;3.15;1.45;;;;;;;;;;5052687;28;20035;-38
2022/05/19 06:58:20;;;;;;;2.83;1.13;;;;;;;;;;5052757;28;20040;-38
2022/05/19 07:00:46;;;;;;;2.15;1.27;;;;;;;;;;5052997;28;20122;-38
2022/05/19 07:03:12;;;;;;;2.22;1.08;;;;;;;;;;5051532;28;20915;-38
2022/05/19 07:05:39;;;;;;;8.85;1.10;;;;;;;;;;5052595;28;20029;-38
2022/05/19 07:08:06;;;;;;;8.73;1.05;;;;;;;;;;5052890;28;20048;-38
2022/05/19 07:10:32;;;;;;;3.63;1.33;;;;;;;;;;5052525;28;20471;-38
2022/05/19 07:12:59;;;;;;;2.53;1.25;;;;;;;;;;5052327;28;20140;-38
2022/05/19 07:15:27;;;;;;;3.65;1.42;;;;;;;;;;5052747;28;20427;-38
2022/05/19 07:17:53;;;;;;;4.35;1.15;;;;;;;;;;5052341;28;20060;-39
2022/05/19 07:23:06;;;;;;;1.30;1.10;;;;;;;;;;5052451;28;20067;-38
2022/05/19 07:25:33;;;;;;;2.85;1.10;;;;;;;;;;5052494;28;20040;-38
2022/05/19 07:27:59;;;;;;;3.33;1.55;;;;;;;;;;5052147;28;20029;-38
2022/05/19 07:30:25;;;;;;;4.95;1.75;;;;;;;;;;5052216;28;20025;-38
2022/05/19 07:32:53;;;;;;;2.10;1.15;;;;;;;;;;5050783;28;20044;-38
2022/05/19 07:35:19;;;;;;;2.53;1.33;;;;;;;;;;5052061;28;20498;-38
2022/05/19 07:37:45;;;;;;;1.20;0.90;;;;;;;;;;5052004;28;20037;-39
2022/05/19 07:40:11;;;;;;;4.60;1.23;;;;;;;;;;5052025;28;20490;-38
2022/05/19 07:42:37;;;;;;;1.77;1.30;;;;;;;;;;5051823;28;20036;-40
2022/05/19 07:45:04;;;;;;;1.25;1.00;;;;;;;;;;5051963;28;20020;-38
2022/05/19 07:47:29;;;;;;;1.45;1.30;;;;;;;;;;5051863;28;20033;-38
2022/05/19 07:49:56;;;;;;;4.15;1.23;;;;;;;;;;5050480;28;20036;-38
2022/05/19 07:52:24;;;;;;;4.13;1.10;;;;;;;;;;5051808;28;20021;-38
2022/05/19 07:54:50;;;;;;;4.00;1.10;;;;;;;;;;5051790;28;20051;-38
2022/05/19 07:57:18;;;;;;;6.07;1.05;;;;;;;;;;5051773;28;20025;-38
2022/05/19 07:59:43;;;;;;;3.42;1.42;;;;;;;;;;5051623;28;20506;-38
2022/05/19 08:02:09;;;;;;;1.23;0.77;;;;;;;;;;5051582;28;20033;-38
2022/05/19 08:04:34;;;;;;;2.08;1.00;;;;;;;;;;5051532;28;20036;-39
2022/05/19 08:07:03;;;;;;;4.53;1.17;;;;;;;;;;5051573;28;20068;-38
2022/05/19 08:15:34;;;;;;;3.15;1.25;;;;;;;;;;5051303;28;20112;-39
2022/05/19 08:17:54;;;;;;;2.00;1.10;;;;;;;;;;5051341;28;20029;-38
2022/05/19 08:20:20;;;;;;;1.10;1.00;;;;;;;;;;5050114;28;20394;-38
2022/05/19 08:22:46;;;;;;;1.35;1.00;;;;;;;;;;5050772;28;20037;-37
2022/05/19 08:25:12;;;;;;;2.58;1.10;;;;;;;;;;5051343;28;20388;-38
2022/05/19 08:27:39;;;;;;;2.75;1.38;;;;;;;;;;5051855;28;20107;-38
2022/05/19 08:30:05;;;;;;;1.17;1.00;;;;;;;;;;5051282;28;20029;-38
2022/05/19 08:32:31;;;;;;;0.98;0.90;;;;;;;;;;5051581;28;20029;-38
2022/05/19 08:34:57;;;;;;;2.38;1.42;;;;;;;;;;5051060;28;20036;-38
2022/05/19 08:37:25;;;;;;;5.53;1.30;;;;;;;;;;5051052;28;20021;-38
2022/05/19 08:39:51;;;;;;;1.35;1.13;;;;;;;;;;5051213;28;20088;-38
2022/05/19 08:42:17;;;;;;;2.60;1.17;;;;;;;;;;5051223;28;20125;-38
2022/05/19 08:44:51;;;;;;;1.65;0.90;;;;;;;;;;5051062;28;20483;-38
2022/05/19 08:47:22;;;;;;;2.03;1.10;;;;;;;;;;5051493;28;20040;-38
2022/05/19 08:49:48;;;;;;;2.25;1.48;;;;;;;;;;5050939;28;20108;-39
2022/05/19 08:52:16;;;;;;;4.68;1.23;;;;;;;;;;5051454;28;20049;-38
2022/05/19 08:54:47;;;;;;;1.48;0.90;;;;;;;;;;5051057;28;20071;-38
2022/05/19 08:57:23;;;;;;;1.33;0.82;;;;;;;;;;5051426;28;20112;-38
2022/05/19 09:00:01;;;;;;;3.10;1.08;;;;;;;;;;5050842;28;20056;-38
2022/05/19 09:02:28;;;;;;;2.30;1.02;;;;;;;;;;5051089;28;20812;-38
2022/05/19 09:05:29;;;;;;;1.20;0.90;;;;;;;;;;5050909;28;20037;-38
2022/05/19 09:08:01;;;;;;;6.20;0.90;;;;;;;;;;5048301;28;20461;-39
2022/05/19 09:10:40;;;;;;;2.70;0.85;;;;;;;;;;5050257;28;20044;-38
2022/05/19 09:13:19;;;;;;;0.80;0.70;;;;;;;;;;5050780;28;20128;-38
2022/05/19 09:15:45;;;;;;;2.08;1.00;;;;;;;;;;5051036;28;20041;-38
2022/05/19 09:18:14;;;;;;;1.13;0.90;;;;;;;;;;5051026;28;20040;-39
2022/05/19 09:20:41;;;;;;;1.08;0.82;;;;;;;;;;5050703;28;20037;-38
2022/05/19 09:23:07;;;;;;;2.85;0.95;;;;;;;;;;5050898;28;20071;-38
2022/05/19 09:25:36;;;;;;;3.47;1.02;;;;;;;;;;5051042;28;20515;-38
2022/05/19 09:28:02;;;;;;;1.95;1.00;;;;;;;;;;5050677;28;20437;-38
2022/05/19 09:30:45;;;;;;;1.23;1.05;;;;;;;;;;5050798;28;20113;-38
2022/05/19 09:33:10;;;;;;;;;;;;;;;;;;5051718;28;20025;-38
2022/05/19 09:35:38;;;;;;;5.93;1.40;;;;;;;;;;5054163;28;20007;-38
2022/05/19 09:38:07;;;;;;;3.95;1.00;;;;;;;;;;5054320;28;20032;-38
2022/05/19 09:40:35;;;;;;;1.83;1.20;;;;;;;;;;5054213;28;20028;-38
2022/05/19 09:43:06;;;;;;;7.60;1.05;;;;;;;;;;5054234;28;20056;-38
2022/05/19 09:45:41;;;;;;;1.50;1.20;;;;;;;;;;5054202;28;20113;-38
2022/05/19 09:48:08;;;;;;;1.58;0.70;;;;;;;;;;5054181;28;20082;-38
2022/05/19 09:50:42;;;;;;;1.33;1.00;;;;;;;;;;5053997;28;20027;-38
2022/05/19 09:53:13;;;;;;;1.77;1.08;;;;;;;;;;5054117;28;20108;-39
2022/05/19 09:55:42;;;;;;;6.95;0.90;;;;;;;;;;5054090;28;20041;-38
2022/05/19 09:58:18;;;;;;;1.60;1.13;;;;;;;;;;5054278;28;20458;-39
2022/05/19 10:00:51;;;;;;;2.47;1.10;;;;;;;;;;5053968;28;20021;-38
2022/05/19 10:03:23;;;;;;;1.10;1.00;;;;;;;;;;5054187;28;20430;-37
2022/05/19 10:05:49;;;;;;;0.93;0.85;;;;;;;;;;5054086;28;20032;-38
2022/05/19 10:08:19;;;;;;;1.88;1.30;;;;;;;;;;5053789;28;20452;-38
2022/05/19 10:10:48;;;;;;;2.10;1.02;;;;;;;;;;5052381;28;20029;-38
2022/05/19 10:13:14;;;;;;;1.83;1.20;;;;;;;;;;5053462;28;20505;-38
2022/05/19 10:15:47;;;;;;;1.48;1.00;;;;;;;;;;5053746;28;20466;-38
2022/05/19 10:18:20;;;;;;;2.28;1.13;;;;;;;;;;5053695;28;20037;-38
2022/05/19 10:20:53;;;;;;;5.72;1.15;;;;;;;;;;5053696;28;20044;-38
2022/05/19 10:23:22;;;;;;;1.92;1.23;;;;;;;;;;5053695;28;20086;-41
2022/05/19 10:25:51;;;;;;;2.40;1.30;;;;;;;;;;5053431;28;20071;-38
2022/05/19 10:31:33;;;;;;;1.25;0.90;;;;;;;;;;5052478;28;20040;-38
2022/05/19 10:34:05;;;;;;;2.40;1.00;;;;;;;;;;5053572;28;20053;-38
2022/05/19 10:36:43;;;;;;;1.70;1.10;;;;;;;;;;5053432;28;20036;-38
2022/05/19 10:39:09;;;;;;;1.25;1.10;;;;;;;;;;5053427;28;20029;-39
2022/05/19 10:41:57;;;;;;;2.90;1.30;;;;;;;;;;5053295;28;20039;-38
2022/05/19 10:44:47;;;;;;;9.13;1.30;;;;;;;;;;5052820;28;20056;-39
2022/05/19 10:47:12;;;;;;;1.17;0.88;;;;;;;;;;5053283;28;20033;-38
2022/05/19 10:49:51;;;;;;;3.80;1.40;;;;;;;;;;5053142;28;20482;-38
2022/05/19 10:52:24;;;;;;;1.90;0.95;;;;;;;;;;5053053;28;20094;-38
2022/05/19 10:54:53;;;;;;;4.50;1.33;;;;;;;;;;5053011;28;20044;-38
2022/05/19 10:57:28;;;;;;;1.63;1.00;;;;;;;;;;5053096;28;20151;-38
2022/05/19 11:00:06;;;;;;;1.08;0.90;;;;;;;;;;5052675;28;20364;-38
2022/05/19 11:02:44;;;;;;;4.20;1.45;;;;;;;;;;5052793;28;20475;-38
2022/05/19 11:05:15;;;;;;;2.72;1.10;;;;;;;;;;5052635;28;20434;-38
2022/05/19 11:07:41;;;;;;;4.10;0.77;;;;;;;;;;5052791;28;20400;-38
2022/05/19 11:10:21;;;;;;;7.63;1.40;;;;;;;;;;5052591;28;20503;-39
2022/05/19 11:13:03;;;;;;;2.47;1.65;;;;;;;;;;5051072;28;20391;-38
2022/05/19 11:15:31;;;;;;;5.85;1.20;;;;;;;;;;5052436;28;20043;-41
2022/05/19 11:17:57;;;;;;;3.25;2.35;;;;;;;;;;5052630;28;20033;-39
2022/05/19 11:20:28;;;;;;;1.05;0.95;;;;;;;;;;5052562;28;20524;-39
2022/05/19 11:23:00;;;;;;;2.65;1.35;;;;;;;;;;5052326;28;20056;-39
2022/05/19 11:28:22;;;;;;;4.25;1.33;;;;;;;;;;5052202;28;20025;-38
2022/05/19 11:30:53;;;;;;;1.73;1.02;;;;;;;;;;5052150;28;20035;-39
2022/05/19 11:33:22;;;;;;;0.93;0.80;;;;;;;;;;5052117;28;20438;-38
2022/05/19 11:35:54;;;;;;;3.63;1.35;;;;;;;;;;5051961;28;20548;-39
2022/05/19 11:38:23;;;;;;;3.45;1.42;;;;;;;;;;5052032;28;20018;-40
2022/05/19 11:41:01;;;;;;;5.10;0.90;;;;;;;;;;5051972;28;20017;-38
2022/05/19 11:43:34;;;;;;;2.30;1.40;;;;;;;;;;5051911;28;20132;-39
2022/05/19 11:46:03;;;;;;;1.80;1.15;;;;;;;;;;5051042;28;20434;-38
2022/05/19 11:57:29;;;;;;;1.33;1.23;;;;;;;;;;5049137;28;20438;-38
2022/05/19 11:59:57;;;;;;;3.58;1.20;;;;;;;;;;5051636;28;20612;-38
2022/05/19 12:02:28;;;;;;;1.25;1.15;;;;;;;;;;5051742;28;20042;-39
2022/05/19 12:05:00;;;;;;;1.17;0.85;;;;;;;;;;5051532;28;20383;-38
2022/05/19 12:07:37;;;;;;;2.00;1.20;;;;;;;;;;5051826;28;20040;-41
2022/05/19 12:10:03;;;;;;;2.75;1.50;;;;;;;;;;5051814;28;20387;-39
2022/05/19 12:12:33;;;;;;;1.42;1.10;;;;;;;;;;5051502;28;20059;-38
2022/05/19 12:15:08;;;;;;;3.67;1.65;;;;;;;;;;5051367;28;20044;-38
2022/05/19 12:17:41;;;;;;;3.58;1.30;;;;;;;;;;5051678;28;20049;-38
2022/05/19 12:20:42;;;;;;;2.45;1.40;;;;;;;;;;5051427;28;20033;-38
2022/05/19 12:23:26;;;;;;;1.17;0.77;;;;;;;;;;5048933;28;20462;-38
2022/05/19 12:25:53;;;;;;;1.98;1.35;;;;;;;;;;5050905;28;20083;-38
2022/05/19 12:28:19;;;;;;;1.25;1.00;;;;;;;;;;5051289;28;20023;-39
2022/05/19 12:33:58;;;;;;;1.27;0.93;;;;;;;;;;5051200;28;20033;-38
2022/05/19 12:36:26;;;;;;;3.20;1.50;;;;;;;;;;5051234;28;20498;-38
2022/05/19 12:38:52;;;;;;;3.30;1.30;;;;;;;;;;5051150;28;20434;-38
2022/05/19 12:41:23;;;;;;;4.63;1.80;;;;;;;;;;5051457;28;20056;-38
2022/05/19 12:43:51;;;;;;;4.63;1.35;;;;;;;;;;5051351;28;20029;-38
2022/05/19 12:46:37;;;;;;;3.58;0.93;;;;;;;;;;5051184;28;20098;-39
2022/05/19 12:49:19;;;;;;;2.88;1.52;;;;;;;;;;5051112;28;20055;-38
2022/05/19 12:51:53;;;;;;;1.20;1.00;;;;;;;;;;5051026;28;20029;-38
2022/05/19 12:54:20;;;;;;;3.15;1.27;;;;;;;;;;5051040;28;20119;-38
2022/05/19 12:56:45;;;;;;;1.35;1.10;;;;;;;;;;5051032;28;20528;-39
2022/05/19 12:59:37;;;;;;;1.48;1.27;;;;;;;;;;5051010;28;20024;-38
2022/05/19 13:02:08;;;;;;;1.92;1.05;;;;;;;;;;5050694;28;20506;-39
2022/05/19 13:04:43;;;;;;;1.35;1.13;;;;;;;;;;5051310;28;20434;-38
2022/05/19 13:07:31;;;;;;;2.78;1.20;;;;;;;;;;5051382;28;20025;-38
2022/05/19 13:10:02;;;;;;;0.82;0.82;;;;;;;;;;5054755;28;20028;-38
2022/05/19 13:12:31;;;;;;;2.92;1.00;;;;;;;;;;5054705;28;20052;-38
2022/05/19 13:14:57;;;;;;;1.63;1.10;;;;;;;;;;5054642;28;20120;-38
2022/05/19 13:17:30;;;;;;;2.28;1.15;;;;;;;;;;5053331;28;20033;-38
2022/05/19 13:19:56;;;;;;;1.27;1.02;;;;;;;;;;5054947;28;20064;-38
2022/05/19 13:22:23;;;;;;;10.80;1.30;;;;;;;;;;5054574;28;20059;-38
2022/05/19 13:24:48;;;;;;;1.20;0.93;;;;;;;;;;5054814;28;20036;-38
2022/05/19 13:30:21;;;;;;;0.95;0.82;;;;;;;;;;5054527;28;20060;-38
2022/05/19 13:32:46;;;;;;;2.20;0.77;;;;;;;;;;5054403;28;20060;-38
2022/05/19 13:35:16;;;;;;;3.53;1.00;;;;;;;;;;5054424;28;20479;-39
2022/05/19 13:37:43;;;;;;;4.53;1.00;;;;;;;;;;5054040;28;20025;-39
2022/05/19 13:40:29;;;;;;;1.73;0.88;;;;;;;;;;5054376;28;20028;-38
2022/05/19 13:42:59;;;;;;;1.05;0.88;;;;;;;;;;5054161;28;20033;-39
2022/05/19 13:45:31;;;;;;;4.00;1.05;;;;;;;;;;5054447;28;20024;-39
2022/05/19 13:47:57;;;;;;;2.60;1.00;;;;;;;;;;5054052;28;20068;-39
2022/05/19 13:50:26;;;;;;;1.27;0.80;;;;;;;;;;5054398;28;20106;-38
2022/05/19 13:52:54;;;;;;;2.40;0.90;;;;;;;;;;5054190;28;20035;-39
2022/05/19 13:55:31;;;;;;;3.42;0.80;;;;;;;;;;5054234;28;20424;-38
2022/05/19 13:57:56;;;;;;;1.65;1.00;;;;;;;;;;5053743;28;20108;-38
2022/05/19 14:00:27;;;;;;;2.22;1.00;;;;;;;;;;5054253;28;20514;-38
2022/05/19 14:02:53;;;;;;;1.05;0.90;;;;;;;;;;5053767;28;20108;-38
2022/05/19 14:05:27;;;;;;;3.13;1.27;;;;;;;;;;5053838;28;20013;-38
2022/05/19 14:07:54;;;;;;;1.48;1.10;;;;;;;;;;5053638;28;20490;-38
2022/05/19 14:10:22;;;;;;;2.05;1.00;;;;;;;;;;5053815;28;20025;-38
2022/05/19 14:12:52;;;;;;;1.40;0.90;;;;;;;;;;5053413;28;20533;-38
2022/05/19 14:15:20;;;;;;;1.17;1.00;;;;;;;;;;5053788;28;20503;-38
2022/05/19 14:17:57;;;;;;;0.77;0.52;;;;;;;;;;5053563;28;20079;-39
2022/05/19 14:20:32;;;;;;;2.33;1.40;;;;;;;;;;5052879;28;20064;-38
2022/05/19 14:22:57;;;;;;;3.47;1.10;;;;;;;;;;5053549;28;20021;-38
2022/05/19 14:25:26;;;;;;;1.77;0.93;;;;;;;;;;5053501;28;20086;-38
2022/05/19 14:27:56;;;;;;;2.13;1.00;;;;;;;;;;5053286;28;20025;-38
2022/05/19 14:30:27;;;;;;;2.80;0.85;;;;;;;;;;5053623;28;20075;-38
2022/05/19 14:32:57;;;;;;;1.35;0.90;;;;;;;;;;5053297;28;20021;-38
2022/05/19 14:35:46;;;;;;;2.75;0.90;;;;;;;;;;5053157;28;20087;-38
2022/05/19 14:38:17;;;;;;;2.38;1.17;;;;;;;;;;5048964;28;20040;-39
2022/05/19 14:43:32;;;;;;;1.88;0.93;;;;;;;;;;5053160;28;20126;-39
2022/05/19 14:46:00;;;;;;;6.63;0.93;;;;;;;;;;5053265;28;20059;-39
2022/05/19 14:48:28;;;;;;;1.60;0.80;;;;;;;;;;5052966;28;20024;-39
2022/05/19 14:50:55;;;;;;;3.25;1.15;;;;;;;;;;5053130;28;20071;-39
2022/05/19 14:53:22;;;;;;;2.90;1.00;;;;;;;;;;5053002;28;20521;-38
2022/05/19 14:55:59;;;;;;;2.30;1.00;;;;;;;;;;5052619;28;20041;-38
2022/05/19 14:58:30;;;;;;;3.08;1.10;;;;;;;;;;5052800;28;20079;-39
2022/05/19 15:00:57;;;;;;;0.80;0.80;;;;;;;;;;5052751;28;20041;-39
2022/05/19 15:03:22;;;;;;;3.95;1.83;;;;;;;;;;5052705;28;20044;-39
2022/05/19 15:05:49;;;;;;;1.35;1.17;;;;;;;;;;5052927;28;20061;-39
2022/05/19 15:08:15;;;;;;;3.50;0.93;;;;;;;;;;5052770;28;20021;-39
2022/05/19 15:10:42;;;;;;;0.75;0.60;;;;;;;;;;5052514;28;20493;-38
2022/05/19 15:13:07;;;;;;;5.32;1.20;;;;;;;;;;5051100;28;20530;-38
2022/05/19 15:15:34;;;;;;;1.58;0.93;;;;;;;;;;5052721;28;20124;-39
2022/05/19 15:17:59;;;;;;;1.40;1.30;;;;;;;;;;5052358;28;20048;-38
2022/05/19 15:20:32;;;;;;;0.82;0.75;;;;;;;;;;5052357;28;20490;-39
2022/05/19 15:22:58;;;;;;;2.50;1.00;;;;;;;;;;5052382;28;20024;-38
2022/05/19 15:25:24;;;;;;;2.28;1.17;;;;;;;;;;5052293;28;20486;-38
2022/05/19 15:27:50;;;;;;;0.85;0.57;;;;;;;;;;5052244;28;20025;-38